sensor_id;sensor_type;location;lat;lon;timestamp;P1;durP1;ratioP1;P2;durP2;ratioP2
47764;SDS011;33529;49.242;8.670;2022-09-02T00:01:15;6.55;;;4.60;;
47764;SDS011;33529;49.242;8.670;2022-09-02T00:03:45;6.07;;;4.35;;
47764;SDS011;33529;49.242;8.670;2022-09-02T00:06:13;5.03;;;4.22;;
47764;SDS011;33529;49.242;8.670;2022-09-02T00:08:41;4.80;;;4.30;;
47764;SDS011;33529;49.242;8.670;2022-09-02T00:11:12;5.40;;;4.75;;
47764;SDS011;33529;49.242;8.670;2022-09-02T00:13:42;5.95;;;4.55;;
47764;SDS011;33529;49.242;8.670;2022-09-02T00:16:10;4.70;;;4.13;;
47764;SDS011;33529;49.242;8.670;2022-09-02T00:18:38;5.65;;;5.05;;
47764;SDS011;33529;49.242;8.670;2022-09-02T00:21:12;4.95;;;4.30;;
47764;SDS011;33529;49.242;8.670;2022-09-02T00:23:40;5.68;;;4.40;;
47764;SDS011;33529;49.242;8.670;2022-09-02T00:26:09;6.45;;;4.90;;
47764;SDS011;33529;49.242;8.670;2022-09-02T00:28:37;5.80;;;4.30;;
47764;SDS011;33529;49.242;8.670;2022-09-02T00:31:09;5.90;;;5.15;;
47764;SDS011;33529;49.242;8.670;2022-09-02T00:33:37;5.55;;;4.57;;
47764;SDS011;33529;49.242;8.670;2022-09-02T00:36:05;4.63;;;4.10;;
47764;SDS011;33529;49.242;8.670;2022-09-02T00:38:33;5.60;;;5.10;;
47764;SDS011;33529;49.242;8.670;2022-09-02T00:41:02;5.63;;;4.90;;
47764;SDS011;33529;49.242;8.670;2022-09-02T00:46:06;6.40;;;4.75;;
47764;SDS011;33529;49.242;8.670;2022-09-02T00:48:36;6.35;;;4.60;;
47764;SDS011;33529;49.242;8.670;2022-09-02T00:51:07;6.70;;;4.53;;
47764;SDS011;33529;49.242;8.670;2022-09-02T00:53:36;6.25;;;4.68;;
47764;SDS011;33529;49.242;8.670;2022-09-02T00:56:06;5.60;;;4.85;;
47764;SDS011;33529;49.242;8.670;2022-09-02T00:58:39;5.88;;;4.55;;
47764;SDS011;33529;49.242;8.670;2022-09-02T01:01:08;6.05;;;4.32;;
47764;SDS011;33529;49.242;8.670;2022-09-02T01:03:40;5.88;;;4.40;;
47764;SDS011;33529;49.242;8.670;2022-09-02T01:06:09;6.13;;;5.05;;
47764;SDS011;33529;49.242;8.670;2022-09-02T01:08:44;5.55;;;4.72;;
47764;SDS011;33529;49.242;8.670;2022-09-02T01:11:16;5.30;;;4.80;;
47764;SDS011;33529;49.242;8.670;2022-09-02T01:13:46;4.97;;;4.47;;
47764;SDS011;33529;49.242;8.670;2022-09-02T01:16:18;4.80;;;4.10;;
47764;SDS011;33529;49.242;8.670;2022-09-02T01:18:52;5.65;;;4.90;;
47764;SDS011;33529;49.242;8.670;2022-09-02T01:21:21;6.57;;;4.85;;
47764;SDS011;33529;49.242;8.670;2022-09-02T01:23:48;6.10;;;4.78;;
47764;SDS011;33529;49.242;8.670;2022-09-02T01:26:16;6.20;;;4.55;;
47764;SDS011;33529;49.242;8.670;2022-09-02T01:28:43;5.75;;;4.60;;
47764;SDS011;33529;49.242;8.670;2022-09-02T01:31:10;5.40;;;4.90;;
47764;SDS011;33529;49.242;8.670;2022-09-02T01:33:38;6.70;;;5.15;;
47764;SDS011;33529;49.242;8.670;2022-09-02T01:36:05;5.63;;;4.30;;
47764;SDS011;33529;49.242;8.670;2022-09-02T01:38:33;5.70;;;5.10;;
47764;SDS011;33529;49.242;8.670;2022-09-02T01:41:01;5.68;;;4.95;;
47764;SDS011;33529;49.242;8.670;2022-09-02T01:43:28;6.07;;;4.95;;
47764;SDS011;33529;49.242;8.670;2022-09-02T01:45:56;6.32;;;4.78;;
47764;SDS011;33529;49.242;8.670;2022-09-02T01:48:27;4.88;;;4.22;;
47764;SDS011;33529;49.242;8.670;2022-09-02T01:50:56;5.63;;;4.80;;
47764;SDS011;33529;49.242;8.670;2022-09-02T01:53:25;5.45;;;4.45;;
47764;SDS011;33529;49.242;8.670;2022-09-02T01:55:53;6.25;;;4.55;;
47764;SDS011;33529;49.242;8.670;2022-09-02T01:58:20;7.18;;;5.00;;
47764;SDS011;33529;49.242;8.670;2022-09-02T02:00:48;5.78;;;5.20;;
47764;SDS011;33529;49.242;8.670;2022-09-02T02:03:15;5.22;;;4.68;;
47764;SDS011;33529;49.242;8.670;2022-09-02T02:05:42;5.63;;;5.03;;
47764;SDS011;33529;49.242;8.670;2022-09-02T02:08:13;5.53;;;4.10;;
47764;SDS011;33529;49.242;8.670;2022-09-02T02:10:40;5.50;;;5.00;;
47764;SDS011;33529;49.242;8.670;2022-09-02T02:13:11;6.22;;;4.55;;
47764;SDS011;33529;49.242;8.670;2022-09-02T02:15:40;5.95;;;4.82;;
47764;SDS011;33529;49.242;8.670;2022-09-02T02:18:09;7.40;;;4.93;;
47764;SDS011;33529;49.242;8.670;2022-09-02T02:20:37;5.50;;;5.00;;
47764;SDS011;33529;49.242;8.670;2022-09-02T02:23:04;6.57;;;5.07;;
47764;SDS011;33529;49.242;8.670;2022-09-02T02:25:31;6.15;;;4.90;;
47764;SDS011;33529;49.242;8.670;2022-09-02T02:27:59;6.93;;;5.45;;
47764;SDS011;33529;49.242;8.670;2022-09-02T02:30:28;6.32;;;5.20;;
47764;SDS011;33529;49.242;8.670;2022-09-02T02:32:56;5.68;;;4.63;;
47764;SDS011;33529;49.242;8.670;2022-09-02T02:35:24;7.85;;;5.18;;
47764;SDS011;33529;49.242;8.670;2022-09-02T02:37:51;6.22;;;5.13;;
47764;SDS011;33529;49.242;8.670;2022-09-02T02:40:20;5.90;;;5.07;;
47764;SDS011;33529;49.242;8.670;2022-09-02T02:42:49;6.38;;;5.10;;
47764;SDS011;33529;49.242;8.670;2022-09-02T02:45:22;6.40;;;5.75;;
47764;SDS011;33529;49.242;8.670;2022-09-02T02:47:51;6.82;;;5.55;;
47764;SDS011;33529;49.242;8.670;2022-09-02T02:50:20;5.63;;;5.03;;
47764;SDS011;33529;49.242;8.670;2022-09-02T02:52:48;5.47;;;4.93;;
47764;SDS011;33529;49.242;8.670;2022-09-02T02:55:16;6.57;;;5.10;;
47764;SDS011;33529;49.242;8.670;2022-09-02T02:57:44;6.13;;;5.32;;
47764;SDS011;33529;49.242;8.670;2022-09-02T03:00:17;6.05;;;5.00;;
47764;SDS011;33529;49.242;8.670;2022-09-02T03:02:53;6.30;;;5.30;;
47764;SDS011;33529;49.242;8.670;2022-09-02T03:05:22;6.80;;;6.10;;
47764;SDS011;33529;49.242;8.670;2022-09-02T03:07:49;5.30;;;4.80;;
47764;SDS011;33529;49.242;8.670;2022-09-02T03:10:17;6.10;;;4.95;;
47764;SDS011;33529;49.242;8.670;2022-09-02T03:12:45;7.82;;;5.47;;
47764;SDS011;33529;49.242;8.670;2022-09-02T03:15:16;5.83;;;5.23;;
47764;SDS011;33529;49.242;8.670;2022-09-02T03:17:46;4.93;;;4.40;;
47764;SDS011;33529;49.242;8.670;2022-09-02T03:20:14;5.95;;;5.35;;
47764;SDS011;33529;49.242;8.670;2022-09-02T03:22:48;6.10;;;5.50;;
47764;SDS011;33529;49.242;8.670;2022-09-02T03:25:18;5.85;;;5.28;;
47764;SDS011;33529;49.242;8.670;2022-09-02T03:27:47;5.85;;;4.85;;
47764;SDS011;33529;49.242;8.670;2022-09-02T03:30:16;5.40;;;4.90;;
47764;SDS011;33529;49.242;8.670;2022-09-02T03:32:50;6.07;;;4.63;;
47764;SDS011;33529;49.242;8.670;2022-09-02T03:35:19;6.90;;;5.15;;
47764;SDS011;33529;49.242;8.670;2022-09-02T03:37:48;5.68;;;5.18;;
47764;SDS011;33529;49.242;8.670;2022-09-02T03:40:18;5.97;;;5.05;;
47764;SDS011;33529;49.242;8.670;2022-09-02T03:42:50;7.00;;;5.20;;
47764;SDS011;33529;49.242;8.670;2022-09-02T03:45:21;6.05;;;5.20;;
47764;SDS011;33529;49.242;8.670;2022-09-02T03:47:49;5.38;;;4.65;;
47764;SDS011;33529;49.242;8.670;2022-09-02T03:50:26;5.18;;;4.68;;
47764;SDS011;33529;49.242;8.670;2022-09-02T03:53:01;5.72;;;5.00;;
47764;SDS011;33529;49.242;8.670;2022-09-02T03:55:29;5.65;;;4.65;;
47764;SDS011;33529;49.242;8.670;2022-09-02T03:57:56;6.13;;;4.88;;
47764;SDS011;33529;49.242;8.670;2022-09-02T04:00:24;5.93;;;5.07;;
47764;SDS011;33529;49.242;8.670;2022-09-02T04:03:00;5.45;;;4.95;;
47764;SDS011;33529;49.242;8.670;2022-09-02T04:05:28;5.90;;;4.70;;
47764;SDS011;33529;49.242;8.670;2022-09-02T04:07:58;7.35;;;5.10;;
47764;SDS011;33529;49.242;8.670;2022-09-02T04:10:26;6.68;;;4.50;;
47764;SDS011;33529;49.242;8.670;2022-09-02T04:12:54;6.10;;;4.70;;
47764;SDS011;33529;49.242;8.670;2022-09-02T04:15:21;6.60;;;4.65;;
47764;SDS011;33529;49.242;8.670;2022-09-02T04:17:50;5.18;;;4.57;;
47764;SDS011;33529;49.242;8.670;2022-09-02T04:20:19;5.22;;;4.10;;
47764;SDS011;33529;49.242;8.670;2022-09-02T04:22:46;4.88;;;4.38;;
47764;SDS011;33529;49.242;8.670;2022-09-02T04:25:14;4.95;;;4.45;;
47764;SDS011;33529;49.242;8.670;2022-09-02T04:27:42;5.25;;;4.50;;
47764;SDS011;33529;49.242;8.670;2022-09-02T04:30:09;6.15;;;4.30;;
47764;SDS011;33529;49.242;8.670;2022-09-02T04:32:38;4.97;;;4.25;;
47764;SDS011;33529;49.242;8.670;2022-09-02T04:35:07;5.47;;;4.70;;
47764;SDS011;33529;49.242;8.670;2022-09-02T04:37:35;5.43;;;4.68;;
47764;SDS011;33529;49.242;8.670;2022-09-02T04:40:03;5.55;;;4.80;;
47764;SDS011;33529;49.242;8.670;2022-09-02T04:42:30;5.03;;;4.53;;
47764;SDS011;33529;49.242;8.670;2022-09-02T04:44:59;4.72;;;4.20;;
47764;SDS011;33529;49.242;8.670;2022-09-02T04:47:27;4.97;;;4.47;;
47764;SDS011;33529;49.242;8.670;2022-09-02T04:49:55;4.75;;;4.28;;
47764;SDS011;33529;49.242;8.670;2022-09-02T04:52:22;6.97;;;4.50;;
47764;SDS011;33529;49.242;8.670;2022-09-02T04:54:49;4.85;;;4.35;;
47764;SDS011;33529;49.242;8.670;2022-09-02T04:57:17;4.93;;;4.43;;
47764;SDS011;33529;49.242;8.670;2022-09-02T04:59:43;5.35;;;4.68;;
47764;SDS011;33529;49.242;8.670;2022-09-02T05:02:10;5.20;;;4.50;;
47764;SDS011;33529;49.242;8.670;2022-09-02T05:04:38;5.32;;;4.82;;
47764;SDS011;33529;49.242;8.670;2022-09-02T05:07:14;5.35;;;4.35;;
47764;SDS011;33529;49.242;8.670;2022-09-02T05:09:43;5.25;;;4.68;;
47764;SDS011;33529;49.242;8.670;2022-09-02T05:12:11;5.32;;;4.82;;
47764;SDS011;33529;49.242;8.670;2022-09-02T05:14:44;7.22;;;4.97;;
47764;SDS011;33529;49.242;8.670;2022-09-02T05:17:17;5.60;;;4.70;;
47764;SDS011;33529;49.242;8.670;2022-09-02T05:19:46;6.55;;;4.88;;
47764;SDS011;33529;49.242;8.670;2022-09-02T05:22:14;6.10;;;5.43;;
47764;SDS011;33529;49.242;8.670;2022-09-02T05:24:42;9.38;;;5.28;;
47764;SDS011;33529;49.242;8.670;2022-09-02T05:27:11;8.50;;;4.88;;
47764;SDS011;33529;49.242;8.670;2022-09-02T05:29:42;5.68;;;4.50;;
47764;SDS011;33529;49.242;8.670;2022-09-02T05:32:11;4.80;;;3.65;;
47764;SDS011;33529;49.242;8.670;2022-09-02T05:34:38;5.10;;;4.20;;
47764;SDS011;33529;49.242;8.670;2022-09-02T05:37:05;4.80;;;3.75;;
47764;SDS011;33529;49.242;8.670;2022-09-02T05:39:34;5.15;;;3.97;;
47764;SDS011;33529;49.242;8.670;2022-09-02T05:42:03;5.47;;;4.15;;
47764;SDS011;33529;49.242;8.670;2022-09-02T05:44:31;5.20;;;3.97;;
47764;SDS011;33529;49.242;8.670;2022-09-02T05:47:02;5.18;;;3.92;;
47764;SDS011;33529;49.242;8.670;2022-09-02T05:49:29;4.47;;;3.75;;
47764;SDS011;33529;49.242;8.670;2022-09-02T05:52:05;4.82;;;4.07;;
47764;SDS011;33529;49.242;8.670;2022-09-02T05:54:42;5.38;;;4.45;;
47764;SDS011;33529;49.242;8.670;2022-09-02T05:57:13;5.38;;;4.05;;
47764;SDS011;33529;49.242;8.670;2022-09-02T05:59:50;4.72;;;3.53;;
47764;SDS011;33529;49.242;8.670;2022-09-02T06:02:26;4.85;;;4.00;;
47764;SDS011;33529;49.242;8.670;2022-09-02T06:04:54;5.10;;;3.72;;
47764;SDS011;33529;49.242;8.670;2022-09-02T06:07:23;5.90;;;3.92;;
47764;SDS011;33529;49.242;8.670;2022-09-02T06:09:52;6.25;;;4.00;;
47764;SDS011;33529;49.242;8.670;2022-09-02T06:12:23;5.13;;;3.80;;
47764;SDS011;33529;49.242;8.670;2022-09-02T06:14:51;5.15;;;4.05;;
47764;SDS011;33529;49.242;8.670;2022-09-02T06:17:20;4.30;;;3.42;;
47764;SDS011;33529;49.242;8.670;2022-09-02T06:19:49;4.88;;;3.70;;
47764;SDS011;33529;49.242;8.670;2022-09-02T06:22:21;4.70;;;3.92;;
47764;SDS011;33529;49.242;8.670;2022-09-02T06:24:49;5.50;;;3.63;;
47764;SDS011;33529;49.242;8.670;2022-09-02T06:27:21;5.28;;;3.75;;
47764;SDS011;33529;49.242;8.670;2022-09-02T06:29:51;4.50;;;3.97;;
47764;SDS011;33529;49.242;8.670;2022-09-02T06:32:20;4.45;;;3.63;;
47764;SDS011;33529;49.242;8.670;2022-09-02T06:34:51;5.13;;;3.75;;
47764;SDS011;33529;49.242;8.670;2022-09-02T06:37:20;3.97;;;3.35;;
47764;SDS011;33529;49.242;8.670;2022-09-02T06:39:49;4.90;;;3.45;;
47764;SDS011;33529;49.242;8.670;2022-09-02T06:42:21;4.85;;;3.70;;
47764;SDS011;33529;49.242;8.670;2022-09-02T06:45:03;5.93;;;3.90;;
47764;SDS011;33529;49.242;8.670;2022-09-02T06:47:32;7.55;;;4.05;;
47764;SDS011;33529;49.242;8.670;2022-09-02T06:49:59;4.78;;;3.58;;
47764;SDS011;33529;49.242;8.670;2022-09-02T06:52:27;5.30;;;3.60;;
47764;SDS011;33529;49.242;8.670;2022-09-02T06:54:54;4.28;;;3.60;;
47764;SDS011;33529;49.242;8.670;2022-09-02T06:57:21;6.07;;;4.30;;
47764;SDS011;33529;49.242;8.670;2022-09-02T06:59:57;5.72;;;3.97;;
47764;SDS011;33529;49.242;8.670;2022-09-02T07:02:30;4.38;;;3.97;;
47764;SDS011;33529;49.242;8.670;2022-09-02T07:04:58;4.03;;;3.30;;
47764;SDS011;33529;49.242;8.670;2022-09-02T07:07:43;4.45;;;3.45;;
47764;SDS011;33529;49.242;8.670;2022-09-02T07:10:13;3.92;;;3.05;;
47764;SDS011;33529;49.242;8.670;2022-09-02T07:12:45;4.50;;;3.75;;
47764;SDS011;33529;49.242;8.670;2022-09-02T07:15:15;4.90;;;3.53;;
47764;SDS011;33529;49.242;8.670;2022-09-02T07:17:42;5.70;;;3.70;;
47764;SDS011;33529;49.242;8.670;2022-09-02T07:20:19;5.65;;;3.75;;
47764;SDS011;33529;49.242;8.670;2022-09-02T07:22:52;4.38;;;3.25;;
47764;SDS011;33529;49.242;8.670;2022-09-02T07:25:21;5.82;;;3.97;;
47764;SDS011;33529;49.242;8.670;2022-09-02T07:27:48;5.15;;;3.40;;
47764;SDS011;33529;49.242;8.670;2022-09-02T07:30:18;4.95;;;3.28;;
47764;SDS011;33529;49.242;8.670;2022-09-02T07:32:51;7.68;;;3.25;;
47764;SDS011;33529;49.242;8.670;2022-09-02T07:35:20;6.90;;;3.15;;
47764;SDS011;33529;49.242;8.670;2022-09-02T07:37:48;5.07;;;3.33;;
47764;SDS011;33529;49.242;8.670;2022-09-02T07:40:17;6.90;;;3.13;;
47764;SDS011;33529;49.242;8.670;2022-09-02T07:42:45;4.22;;;2.90;;
47764;SDS011;33529;49.242;8.670;2022-09-02T07:45:12;4.80;;;3.03;;
47764;SDS011;33529;49.242;8.670;2022-09-02T07:47:41;4.13;;;2.83;;
47764;SDS011;33529;49.242;8.670;2022-09-02T07:50:10;3.85;;;2.50;;
47764;SDS011;33529;49.242;8.670;2022-09-02T07:52:54;3.67;;;2.60;;
47764;SDS011;33529;49.242;8.670;2022-09-02T07:55:24;4.40;;;2.30;;
47764;SDS011;33529;49.242;8.670;2022-09-02T07:57:52;3.70;;;2.47;;
47764;SDS011;33529;49.242;8.670;2022-09-02T08:00:21;4.03;;;2.15;;
47764;SDS011;33529;49.242;8.670;2022-09-02T08:02:53;3.70;;;2.35;;
47764;SDS011;33529;49.242;8.670;2022-09-02T08:05:26;3.67;;;1.83;;
47764;SDS011;33529;49.242;8.670;2022-09-02T08:07:54;2.92;;;1.88;;
47764;SDS011;33529;49.242;8.670;2022-09-02T08:10:20;8.85;;;2.60;;
47764;SDS011;33529;49.242;8.670;2022-09-02T08:12:51;3.55;;;2.20;;
47764;SDS011;33529;49.242;8.670;2022-09-02T08:15:18;4.10;;;2.20;;
47764;SDS011;33529;49.242;8.670;2022-09-02T08:17:46;4.70;;;2.03;;
47764;SDS011;33529;49.242;8.670;2022-09-02T08:20:14;4.05;;;2.22;;
47764;SDS011;33529;49.242;8.670;2022-09-02T08:22:42;5.40;;;2.45;;
47764;SDS011;33529;49.242;8.670;2022-09-02T08:25:17;6.38;;;2.10;;
47764;SDS011;33529;49.242;8.670;2022-09-02T08:27:44;6.30;;;2.42;;
47764;SDS011;33529;49.242;8.670;2022-09-02T08:30:11;3.28;;;1.90;;
47764;SDS011;33529;49.242;8.670;2022-09-02T08:32:38;3.40;;;1.88;;
47764;SDS011;33529;49.242;8.670;2022-09-02T08:35:06;2.90;;;1.83;;
47764;SDS011;33529;49.242;8.670;2022-09-02T08:37:34;5.63;;;1.92;;
47764;SDS011;33529;49.242;8.670;2022-09-02T08:40:03;6.18;;;2.08;;
47764;SDS011;33529;49.242;8.670;2022-09-02T08:42:34;3.25;;;1.70;;
47764;SDS011;33529;49.242;8.670;2022-09-02T08:48:05;2.90;;;1.70;;
47764;SDS011;33529;49.242;8.670;2022-09-02T08:50:40;4.50;;;2.00;;
47764;SDS011;33529;49.242;8.670;2022-09-02T08:53:29;4.47;;;1.90;;
47764;SDS011;33529;49.242;8.670;2022-09-02T08:56:02;3.80;;;1.90;;
47764;SDS011;33529;49.242;8.670;2022-09-02T08:58:38;4.60;;;1.90;;
47764;SDS011;33529;49.242;8.670;2022-09-02T09:09:08;4.47;;;2.05;;
47764;SDS011;33529;49.242;8.670;2022-09-02T09:11:39;4.70;;;1.98;;
47764;SDS011;33529;49.242;8.670;2022-09-02T09:17:07;2.40;;;1.67;;
47764;SDS011;33529;49.242;8.670;2022-09-02T09:19:46;3.10;;;1.83;;
47764;SDS011;33529;49.242;8.670;2022-09-02T09:22:14;3.10;;;1.90;;
47764;SDS011;33529;49.242;8.670;2022-09-02T09:24:46;3.47;;;1.77;;
47764;SDS011;33529;49.242;8.670;2022-09-02T09:27:19;3.13;;;1.65;;
47764;SDS011;33529;49.242;8.670;2022-09-02T09:29:48;4.40;;;1.55;;
47764;SDS011;33529;49.242;8.670;2022-09-02T09:32:20;2.63;;;1.33;;
47764;SDS011;33529;49.242;8.670;2022-09-02T09:34:58;3.33;;;1.65;;
47764;SDS011;33529;49.242;8.670;2022-09-02T09:37:31;3.00;;;1.50;;
47764;SDS011;33529;49.242;8.670;2022-09-02T09:42:47;2.83;;;1.80;;
47764;SDS011;33529;49.242;8.670;2022-09-02T09:45:19;3.60;;;1.33;;
47764;SDS011;33529;49.242;8.670;2022-09-02T09:48:42;3.60;;;1.40;;
47764;SDS011;33529;49.242;8.670;2022-09-02T09:53:27;4.38;;;1.70;;
47764;SDS011;33529;49.242;8.670;2022-09-02T09:56:02;4.38;;;1.42;;
47764;SDS011;33529;49.242;8.670;2022-09-02T09:58:32;2.78;;;1.75;;
47764;SDS011;33529;49.242;8.670;2022-09-02T10:01:12;3.58;;;1.80;;
47764;SDS011;33529;49.242;8.670;2022-09-02T10:07:03;3.67;;;1.35;;
47764;SDS011;33529;49.242;8.670;2022-09-02T10:09:31;4.38;;;1.65;;
47764;SDS011;33529;49.242;8.670;2022-09-02T10:12:01;3.13;;;1.60;;
47764;SDS011;33529;49.242;8.670;2022-09-02T10:14:35;4.97;;;1.35;;
47764;SDS011;33529;49.242;8.670;2022-09-02T10:17:31;2.45;;;1.58;;
47764;SDS011;33529;49.242;8.670;2022-09-02T10:20:21;2.78;;;1.48;;
47764;SDS011;33529;49.242;8.670;2022-09-02T10:23:38;2.65;;;1.20;;
47764;SDS011;33529;49.242;8.670;2022-09-02T10:40:38;4.00;;;1.50;;
47764;SDS011;33529;49.242;8.670;2022-09-02T10:46:23;2.67;;;1.38;;
47764;SDS011;33529;49.242;8.670;2022-09-02T10:49:10;3.97;;;1.67;;
47764;SDS011;33529;49.242;8.670;2022-09-02T10:51:55;2.15;;;1.10;;
47764;SDS011;33529;49.242;8.670;2022-09-02T10:57:19;3.05;;;1.38;;
47764;SDS011;33529;49.242;8.670;2022-09-02T11:02:35;4.13;;;1.30;;
47764;SDS011;33529;49.242;8.670;2022-09-02T11:05:21;4.50;;;1.75;;
47764;SDS011;33529;49.242;8.670;2022-09-02T11:08:02;3.45;;;1.35;;
47764;SDS011;33529;49.242;8.670;2022-09-02T11:10:36;2.10;;;1.10;;
47764;SDS011;33529;49.242;8.670;2022-09-02T11:13:11;3.53;;;1.25;;
47764;SDS011;33529;49.242;8.670;2022-09-02T11:16:22;2.45;;;1.38;;
47764;SDS011;33529;49.242;8.670;2022-09-02T11:21:45;3.90;;;1.40;;
47764;SDS011;33529;49.242;8.670;2022-09-02T11:24:33;3.67;;;1.30;;
47764;SDS011;33529;49.242;8.670;2022-09-02T11:35:38;3.30;;;1.10;;
47764;SDS011;33529;49.242;8.670;2022-09-02T11:38:17;3.15;;;1.25;;
47764;SDS011;33529;49.242;8.670;2022-09-02T11:46:47;5.43;;;1.10;;
47764;SDS011;33529;49.242;8.670;2022-09-02T11:55:05;4.90;;;1.20;;
47764;SDS011;33529;49.242;8.670;2022-09-02T11:57:36;4.25;;;1.48;;
47764;SDS011;33529;49.242;8.670;2022-09-02T12:00:08;3.22;;;1.10;;
47764;SDS011;33529;49.242;8.670;2022-09-02T12:02:44;3.72;;;1.23;;
47764;SDS011;33529;49.242;8.670;2022-09-02T12:08:12;3.75;;;1.05;;
47764;SDS011;33529;49.242;8.670;2022-09-02T12:11:01;3.78;;;1.00;;
47764;SDS011;33529;49.242;8.670;2022-09-02T12:13:39;2.10;;;1.15;;
47764;SDS011;33529;49.242;8.670;2022-09-02T12:18:45;2.35;;;1.10;;
47764;SDS011;33529;49.242;8.670;2022-09-02T12:21:33;2.60;;;1.08;;
47764;SDS011;33529;49.242;8.670;2022-09-02T12:29:11;2.58;;;1.25;;
47764;SDS011;33529;49.242;8.670;2022-09-02T12:31:55;3.30;;;1.05;;
47764;SDS011;33529;49.242;8.670;2022-09-02T12:36:49;1.55;;;0.88;;
47764;SDS011;33529;49.242;8.670;2022-09-02T12:41:57;5.82;;;1.65;;
47764;SDS011;33529;49.242;8.670;2022-09-02T12:44:47;3.97;;;1.40;;
47764;SDS011;33529;49.242;8.670;2022-09-02T12:50:19;2.42;;;0.70;;
47764;SDS011;33529;49.242;8.670;2022-09-02T12:52:51;5.22;;;1.25;;
47764;SDS011;33529;49.242;8.670;2022-09-02T12:55:33;1.83;;;0.90;;
47764;SDS011;33529;49.242;8.670;2022-09-02T12:58:12;3.08;;;1.00;;
47764;SDS011;33529;49.242;8.670;2022-09-02T13:03:23;2.88;;;0.90;;
47764;SDS011;33529;49.242;8.670;2022-09-02T13:06:24;2.15;;;0.90;;
47764;SDS011;33529;49.242;8.670;2022-09-02T13:09:14;2.35;;;0.80;;
47764;SDS011;33529;49.242;8.670;2022-09-02T13:14:52;2.08;;;1.13;;
47764;SDS011;33529;49.242;8.670;2022-09-02T13:31:59;3.10;;;0.93;;
47764;SDS011;33529;49.242;8.670;2022-09-02T13:34:42;2.30;;;0.90;;
47764;SDS011;33529;49.242;8.670;2022-09-02T13:40:33;4.00;;;1.08;;
47764;SDS011;33529;49.242;8.670;2022-09-02T13:43:00;4.22;;;1.00;;
47764;SDS011;33529;49.242;8.670;2022-09-02T13:45:29;2.47;;;0.90;;
47764;SDS011;33529;49.242;8.670;2022-09-02T13:48:01;2.92;;;1.05;;
47764;SDS011;33529;49.242;8.670;2022-09-02T13:50:40;2.10;;;0.90;;
47764;SDS011;33529;49.242;8.670;2022-09-02T13:53:08;4.25;;;1.30;;
47764;SDS011;33529;49.242;8.670;2022-09-02T13:56:04;1.48;;;0.70;;
47764;SDS011;33529;49.242;8.670;2022-09-02T13:58:37;2.75;;;0.80;;
47764;SDS011;33529;49.242;8.670;2022-09-02T14:01:18;3.33;;;1.13;;
47764;SDS011;33529;49.242;8.670;2022-09-02T14:03:49;2.63;;;0.98;;
47764;SDS011;33529;49.242;8.670;2022-09-02T14:06:21;4.53;;;1.10;;
47764;SDS011;33529;49.242;8.670;2022-09-02T14:08:50;2.65;;;0.75;;
47764;SDS011;33529;49.242;8.670;2022-09-02T14:11:20;2.78;;;0.82;;
47764;SDS011;33529;49.242;8.670;2022-09-02T14:13:49;2.90;;;1.10;;
47764;SDS011;33529;49.242;8.670;2022-09-02T14:16:33;3.53;;;1.10;;
47764;SDS011;33529;49.242;8.670;2022-09-02T14:19:01;2.15;;;0.90;;
47764;SDS011;33529;49.242;8.670;2022-09-02T14:21:34;3.75;;;1.10;;
47764;SDS011;33529;49.242;8.670;2022-09-02T14:24:02;3.25;;;1.10;;
47764;SDS011;33529;49.242;8.670;2022-09-02T14:26:36;1.92;;;0.70;;
47764;SDS011;33529;49.242;8.670;2022-09-02T14:29:09;2.58;;;1.00;;
47764;SDS011;33529;49.242;8.670;2022-09-02T14:31:39;1.73;;;0.80;;
47764;SDS011;33529;49.242;8.670;2022-09-02T14:37:00;2.72;;;1.10;;
47764;SDS011;33529;49.242;8.670;2022-09-02T14:42:27;8.30;;;1.55;;
47764;SDS011;33529;49.242;8.670;2022-09-02T14:44:54;3.65;;;1.02;;
47764;SDS011;33529;49.242;8.670;2022-09-02T14:47:24;2.17;;;0.88;;
47764;SDS011;33529;49.242;8.670;2022-09-02T14:49:53;3.28;;;0.88;;
47764;SDS011;33529;49.242;8.670;2022-09-02T14:52:28;2.22;;;0.70;;
47764;SDS011;33529;49.242;8.670;2022-09-02T14:55:02;3.20;;;0.63;;
47764;SDS011;33529;49.242;8.670;2022-09-02T14:57:32;1.83;;;1.15;;
47764;SDS011;33529;49.242;8.670;2022-09-02T15:00:03;2.60;;;1.30;;
47764;SDS011;33529;49.242;8.670;2022-09-02T15:02:43;3.40;;;0.95;;
47764;SDS011;33529;49.242;8.670;2022-09-02T15:05:13;1.20;;;0.57;;
47764;SDS011;33529;49.242;8.670;2022-09-02T15:07:41;2.85;;;0.90;;
47764;SDS011;33529;49.242;8.670;2022-09-02T15:10:08;3.60;;;1.10;;
47764;SDS011;33529;49.242;8.670;2022-09-02T15:12:40;1.67;;;0.88;;
47764;SDS011;33529;49.242;8.670;2022-09-02T15:15:13;2.40;;;1.10;;
47764;SDS011;33529;49.242;8.670;2022-09-02T15:17:40;1.60;;;0.70;;
47764;SDS011;33529;49.242;8.670;2022-09-02T15:20:07;1.75;;;0.90;;
47764;SDS011;33529;49.242;8.670;2022-09-02T15:22:36;1.65;;;0.95;;
47764;SDS011;33529;49.242;8.670;2022-09-02T15:25:04;3.10;;;0.80;;
47764;SDS011;33529;49.242;8.670;2022-09-02T15:27:33;1.95;;;1.08;;
47764;SDS011;33529;49.242;8.670;2022-09-02T15:30:01;3.85;;;0.90;;
47764;SDS011;33529;49.242;8.670;2022-09-02T15:32:29;1.75;;;0.93;;
47764;SDS011;33529;49.242;8.670;2022-09-02T15:34:57;1.73;;;0.90;;
47764;SDS011;33529;49.242;8.670;2022-09-02T15:37:23;1.80;;;0.70;;
47764;SDS011;33529;49.242;8.670;2022-09-02T15:39:51;3.88;;;1.13;;
47764;SDS011;33529;49.242;8.670;2022-09-02T15:42:18;2.05;;;1.10;;
47764;SDS011;33529;49.242;8.670;2022-09-02T15:44:45;2.03;;;0.90;;
47764;SDS011;33529;49.242;8.670;2022-09-02T15:47:12;2.60;;;1.00;;
47764;SDS011;33529;49.242;8.670;2022-09-02T15:49:38;1.80;;;0.85;;
47764;SDS011;33529;49.242;8.670;2022-09-02T15:52:05;1.63;;;0.85;;
47764;SDS011;33529;49.242;8.670;2022-09-02T15:54:32;3.10;;;1.10;;
47764;SDS011;33529;49.242;8.670;2022-09-02T15:56:59;1.83;;;1.10;;
47764;SDS011;33529;49.242;8.670;2022-09-02T15:59:26;4.35;;;1.30;;
47764;SDS011;33529;49.242;8.670;2022-09-02T16:01:54;4.68;;;1.23;;
47764;SDS011;33529;49.242;8.670;2022-09-02T16:04:22;4.47;;;1.15;;
47764;SDS011;33529;49.242;8.670;2022-09-02T16:06:49;2.08;;;0.80;;
47764;SDS011;33529;49.242;8.670;2022-09-02T16:09:17;1.65;;;0.70;;
47764;SDS011;33529;49.242;8.670;2022-09-02T16:11:45;2.08;;;0.73;;
47764;SDS011;33529;49.242;8.670;2022-09-02T16:14:15;2.23;;;0.90;;
47764;SDS011;33529;49.242;8.670;2022-09-02T16:19:14;2.97;;;0.90;;
47764;SDS011;33529;49.242;8.670;2022-09-02T16:21:41;2.03;;;0.88;;
47764;SDS011;33529;49.242;8.670;2022-09-02T16:24:08;2.17;;;1.00;;
47764;SDS011;33529;49.242;8.670;2022-09-02T16:26:36;2.20;;;0.90;;
47764;SDS011;33529;49.242;8.670;2022-09-02T16:29:08;2.40;;;1.23;;
47764;SDS011;33529;49.242;8.670;2022-09-02T16:31:39;2.05;;;0.93;;
47764;SDS011;33529;49.242;8.670;2022-09-02T16:34:08;2.70;;;1.10;;
47764;SDS011;33529;49.242;8.670;2022-09-02T16:36:37;3.60;;;1.00;;
47764;SDS011;33529;49.242;8.670;2022-09-02T16:39:05;3.97;;;1.08;;
47764;SDS011;33529;49.242;8.670;2022-09-02T16:41:34;3.28;;;1.92;;
47764;SDS011;33529;49.242;8.670;2022-09-02T16:44:05;3.08;;;1.70;;
47764;SDS011;33529;49.242;8.670;2022-09-02T16:46:34;4.63;;;1.70;;
47764;SDS011;33529;49.242;8.670;2022-09-02T16:49:02;4.70;;;1.40;;
47764;SDS011;33529;49.242;8.670;2022-09-02T16:51:29;2.20;;;1.05;;
47764;SDS011;33529;49.242;8.670;2022-09-02T16:53:57;5.07;;;0.98;;
47764;SDS011;33529;49.242;8.670;2022-09-02T16:56:26;3.40;;;0.82;;
47764;SDS011;33529;49.242;8.670;2022-09-02T16:58:53;2.28;;;1.10;;
47764;SDS011;33529;49.242;8.670;2022-09-02T17:01:20;1.58;;;0.98;;
47764;SDS011;33529;49.242;8.670;2022-09-02T17:03:48;1.05;;;0.80;;
47764;SDS011;33529;49.242;8.670;2022-09-02T17:06:15;3.25;;;1.00;;
47764;SDS011;33529;49.242;8.670;2022-09-02T17:08:42;1.67;;;0.93;;
47764;SDS011;33529;49.242;8.670;2022-09-02T17:11:20;2.53;;;1.00;;
47764;SDS011;33529;49.242;8.670;2022-09-02T17:14:08;1.95;;;0.98;;